Monte Sarmiento — DCLH2 — position and weather

sailwx.info

Track history (hours):
 
Tides and Currents Weather Stations Pressure Air Temp Water Temp Dewpoint Dewpoint Depression Visibility Wind Speed Wind Dir Waves Ship Positions

Monte Sarmiento

Last reported at 2018-Mar-12 05:25 UTC. Time now 2018-Jun-24 16:46 UTC.
Position N 09°36' W 079°46'.
Warning: this ship's position is months out of date.

Length 272 m; beam 40 m; draft 12.5 m.

Type: Cargo ship. MMSI: 211738000.

Date/timePositionNaut miles runAvg speedWind from/ knotsBaromVisibWave heightAir tempDewpointWater temp
2018-Mar-12 05:25N 09°36' W 079°46'716.5
2018-Mar-12 05:00N 09°31' W 079°50'816.0
2018-Mar-12 04:30N 09°25' W 079°55'4 7.2
2018-Mar-12 03:59N 09°21' W 079°55'0 0.8
2018-Mar-12 03:29N 09°21' W 079°55'0 0.0
2018-Mar-12 02:59N 09°21' W 079°55'0 0.0
2018-Mar-12 02:29N 09°21' W 079°55'0 0.0
2018-Mar-12 01:59N 09°21' W 079°55'0 0.0
2018-Mar-12 01:29N 09°21' W 079°55'0 0.0
2018-Mar-12 00:59N 09°21' W 079°55'0 0.0
2018-Mar-12 00:29N 09°21' W 079°55'0 0.0
2018-Mar-11 23:59N 09°21' W 079°55'0 0.0
2018-Mar-11 23:29N 09°21' W 079°55'0 0.0
2018-Mar-11 22:59N 09°21' W 079°55'0 0.0
2018-Mar-11 22:29N 09°21' W 079°55'0 0.0
2018-Mar-11 21:59N 09°21' W 079°55'0 0.0
2018-Mar-11 21:29N 09°21' W 079°55'0 0.0
2018-Mar-11 20:59N 09°21' W 079°55'0 0.0
2018-Mar-11 20:29N 09°21' W 079°55'0 0.0
2018-Mar-11 19:59N 09°21' W 079°55'0 0.0
2018-Mar-11 19:29N 09°21' W 079°55'0 0.0
2018-Mar-11 18:59N 09°21' W 079°55'0 0.0
2018-Mar-11 18:29N 09°21' W 079°55'0 0.0
2018-Mar-11 17:59N 09°21' W 079°55'0 0.0
2018-Mar-11 17:29N 09°21' W 079°55'0 0.0
2018-Mar-11 16:59N 09°21' W 079°55'0 0.0
2018-Mar-11 16:31N 09°21' W 079°55'0 0.0
2018-Mar-11 16:00N 09°21' W 079°55'0 0.0
2018-Mar-11 15:30N 09°21' W 079°55'0 0.0
2018-Mar-11 15:00N 09°21' W 079°55'0 0.0
2018-Mar-11 14:31N 09°21' W 079°55'0 0.0
2018-Mar-11 14:01N 09°21' W 079°55'0 0.0
2018-Mar-11 13:31N 09°21' W 079°55'0 0.0
2018-Mar-11 13:01N 09°21' W 079°55'0 0.6
2018-Mar-11 12:30N 09°21' W 079°55'2 4.1
2018-Mar-11 12:00N 09°23' W 079°55'3 6.9
2018-Mar-11 11:31N 09°26' W 079°55'3 5.5
2018-Mar-11 11:01N 09°29' W 079°54'1 2.9
2018-Mar-11 10:31N 09°30' W 079°53'0 0.9
2018-Mar-11 10:00N 09°31' W 079°54'1 1.4
2018-Mar-11 09:31N 09°30' W 079°54'5 9.5
2018-Mar-11 09:00N 09°35' W 079°53'  
2018-Mar-06 21:11N 29°21' W 094°43'212.6
2018-Mar-06 21:00N 29°21' W 094°46'1010.5
2018-Mar-06 20:03N 29°29' W 094°52'111.3
2018-Mar-06 19:59N 29°30' W 094°52'510.5
2018-Mar-06 19:30N 29°34' W 094°55'5 9.4
2018-Mar-06 19:00N 29°38' W 094°58'3 6.5
2018-Mar-06 18:30N 29°41' W 094°59'0 0.6
2018-Mar-06 18:00N 29°41' W 094°60'0 0.0
2018-Mar-06 17:30N 29°41' W 094°60'0 0.0
2018-Mar-06 17:00N 29°41' W 094°60'0 0.0
2018-Mar-06 16:30N 29°41' W 094°60'0 0.0
2018-Mar-06 16:00N 29°41' W 094°60'0 0.0
2018-Mar-06 15:30N 29°41' W 094°60'0 0.0
2018-Mar-06 15:00N 29°41' W 094°59'0 0.0
2018-Mar-06 14:30N 29°41' W 094°60'0 0.0
2018-Mar-06 14:00N 29°41' W 094°60'0 0.0
2018-Mar-06 13:30N 29°41' W 094°60'0 0.0
2018-Mar-06 13:00N 29°41' W 094°60'0 0.0
2018-Mar-06 12:30N 29°41' W 094°60'0 0.0
2018-Mar-06 12:00N 29°41' W 094°60'0 0.0
2018-Mar-06 11:30N 29°41' W 094°60'0 0.0
2018-Mar-06 11:00N 29°41' W 094°60'0 0.0
2018-Mar-06 10:30N 29°41' W 094°60'0 0.0
2018-Mar-06 10:00N 29°41' W 094°60'0 0.0
2018-Mar-06 09:30N 29°41' W 094°60'0 0.0
2018-Mar-06 09:00N 29°41' W 094°60'0 0.0
2018-Mar-06 08:30N 29°41' W 094°60'0 0.0
2018-Mar-06 08:00N 29°41' W 094°60'0 0.0
2018-Mar-06 07:30N 29°41' W 094°60'0 0.0
2018-Mar-06 07:00N 29°41' W 094°60'0 0.0
2018-Mar-06 06:30N 29°41' W 094°60'0 0.0
2018-Mar-06 06:00N 29°41' W 094°60'0 0.0
2018-Mar-06 05:30N 29°41' W 094°60'0 0.0
2018-Mar-06 05:00N 29°41' W 094°60'0 0.0
2018-Mar-06 04:30N 29°41' W 094°60'0 0.0
2018-Mar-06 04:00N 29°41' W 094°60'0 0.0
2018-Mar-06 03:30N 29°41' W 094°60'0 0.0
2018-Mar-06 03:00N 29°41' W 094°60'0 0.0
2018-Mar-06 02:30N 29°41' W 094°60'0 0.0
2018-Mar-06 02:00N 29°41' W 094°60'0 0.0
2018-Mar-06 01:30N 29°41' W 094°60'0 0.0
2018-Mar-06 01:00N 29°41' W 094°60'0 0.0
2018-Mar-06 00:30N 29°41' W 094°60'0 0.0
2018-Mar-06 00:00N 29°41' W 094°60'0 0.0
2018-Mar-05 23:30N 29°41' W 094°60'0 0.0
2018-Mar-05 23:00N 29°41' W 094°60'0 0.0
2018-Mar-05 22:30N 29°41' W 094°60'0 0.1
2018-Mar-05 22:00N 29°41' W 094°60'0 0.0
2018-Mar-05 21:30N 29°41' W 094°60'0 0.0
2018-Mar-05 21:00N 29°41' W 094°60'0 0.0
2018-Mar-05 20:30N 29°41' W 094°60'0 0.1
2018-Mar-05 20:00N 29°41' W 094°60'0 0.1
2018-Mar-05 19:30N 29°41' W 094°60'0 0.0
2018-Mar-05 19:00N 29°41' W 094°60'0 0.0
2018-Mar-05 18:30N 29°41' W 094°60'0 0.0
2018-Mar-05 18:01N 29°41' W 094°60'0 0.0
2018-Mar-05 17:30N 29°41' W 094°60'0 0.0
2018-Mar-05 17:01N 29°41' W 094°60'0 0.0
2018-Mar-05 16:31N 29°41' W 094°60'0 0.0
2018-Mar-05 16:00N 29°41' W 094°60'0 0.0
2018-Mar-05 15:30N 29°41' W 094°60'0 0.0
2018-Mar-05 15:01N 29°41' W 094°60'0 0.0
2018-Mar-05 14:30N 29°41' W 094°60'0 0.0
2018-Mar-05 14:01N 29°41' W 094°60'0 0.0
2018-Mar-05 13:31N 29°41' W 094°60'0 0.0
2018-Mar-05 12:59N 29°41' W 094°60'1 1.3
2018-Mar-05 12:30N 29°41' W 094°59'5 9.6
2018-Mar-05 12:01N 29°36' W 094°57'510.7
2018-Mar-05 11:30N 29°32' W 094°54'611.9
2018-Mar-05 11:01N 29°27' W 094°50'612.5
2018-Mar-05 10:30N 29°21' W 094°47'2210.8
2018-Mar-05 08:27N 29°10' W 094°25'611.3
2018-Mar-05 07:54N 29°04' W 094°25'411.1
2018-Mar-05 07:30N 28°60' W 094°25'714.6
2018-Mar-05 07:01N 28°52' W 094°25'918.0
2018-Mar-05 06:31N 28°43' W 094°25'1018.2
2018-Mar-05 05:58N 28°33' W 094°25'  
2018-Mar-02 21:13N 20°15' W 096°24'518.9
2018-Mar-02 20:59N 20°10' W 096°22'2318.6
2018-Mar-02 19:44N 19°49' W 096°12'418.0
2018-Mar-02 19:30N 19°45' W 096°10'1018.5
2018-Mar-02 18:56N 19°36' W 096°05'818.8
2018-Mar-02 18:30N 19°28' W 096°02'1018.6
2018-Mar-02 17:58N 19°19' W 095°57'1014.0
2018-Mar-02 17:16N 19°11' W 096°03'3 9.1
2018-Mar-02 16:58N 19°12' W 096°06'2 4.3
2018-Mar-02 16:28N 19°13' W 096°08'0 0.0
2018-Mar-02 15:40N 19°13' W 096°08'0 0.0
2018-Mar-02 15:28N 19°13' W 096°08'0 0.0
2018-Mar-02 14:52N 19°13' W 096°08'0 0.0
2018-Mar-02 14:25N 19°13' W 096°08'0 0.0
2018-Mar-02 13:40N 19°13' W 096°08'0 0.1
2018-Mar-02 13:19N 19°13' W 096°08'0 0.0
2018-Mar-02 12:22N 19°13' W 096°08'0 0.0
2018-Mar-02 10:10N 19°13' W 096°08'0 0.0
2018-Mar-02 09:43N 19°13' W 096°08'0 0.0
2018-Mar-02 09:20N 19°13' W 096°08'0 0.0
2018-Mar-02 08:56N 19°13' W 096°08'0 0.0
2018-Mar-02 08:24N 19°13' W 096°08'0 0.0
2018-Mar-02 08:00N 19°13' W 096°08'0 0.0
2018-Mar-02 07:30N 19°13' W 096°08'0 0.0
2018-Mar-02 07:00N 19°13' W 096°08'0 0.0
2018-Mar-02 06:29N 19°13' W 096°08'0 0.0
2018-Mar-02 06:00N 19°13' W 096°08'0 0.0
2018-Mar-02 05:28N 19°13' W 096°08'  
Track history (hours):
 
Tides and Currents Weather Stations Pressure Air Temp Water Temp Dewpoint Dewpoint Depression Visibility Wind Speed Wind Dir Waves Ship Positions

Monte Sarmiento

Last reported at 2018-Mar-12 05:25 UTC. Time now 2018-Jun-24 16:46 UTC.
Position N 09°36' W 079°46'.
Warning: this ship's position is months out of date.

Length 272 m; beam 40 m; draft 12.5 m.

Type: Cargo ship. MMSI: 211738000.

Date/timePositionNaut miles runAvg speedWind from/ knotsBaromVisibWave heightAir tempDewpointWater temp
2018-Mar-12 05:25N 09°36' W 079°46'716.5
2018-Mar-12 05:00N 09°31' W 079°50'816.0
2018-Mar-12 04:30N 09°25' W 079°55'4 7.2
2018-Mar-12 03:59N 09°21' W 079°55'0 0.8
2018-Mar-12 03:29N 09°21' W 079°55'0 0.0
2018-Mar-12 02:59N 09°21' W 079°55'0 0.0
2018-Mar-12 02:29N 09°21' W 079°55'0 0.0
2018-Mar-12 01:59N 09°21' W 079°55'0 0.0
2018-Mar-12 01:29N 09°21' W 079°55'0 0.0
2018-Mar-12 00:59N 09°21' W 079°55'0 0.0
2018-Mar-12 00:29N 09°21' W 079°55'0 0.0
2018-Mar-11 23:59N 09°21' W 079°55'0 0.0
2018-Mar-11 23:29N 09°21' W 079°55'0 0.0
2018-Mar-11 22:59N 09°21' W 079°55'0 0.0
2018-Mar-11 22:29N 09°21' W 079°55'0 0.0
2018-Mar-11 21:59N 09°21' W 079°55'0 0.0
2018-Mar-11 21:29N 09°21' W 079°55'0 0.0
2018-Mar-11 20:59N 09°21' W 079°55'0 0.0
2018-Mar-11 20:29N 09°21' W 079°55'0 0.0
2018-Mar-11 19:59N 09°21' W 079°55'0 0.0
2018-Mar-11 19:29N 09°21' W 079°55'0 0.0
2018-Mar-11 18:59N 09°21' W 079°55'0 0.0
2018-Mar-11 18:29N 09°21' W 079°55'0 0.0
2018-Mar-11 17:59N 09°21' W 079°55'0 0.0
2018-Mar-11 17:29N 09°21' W 079°55'0 0.0
2018-Mar-11 16:59N 09°21' W 079°55'0 0.0
2018-Mar-11 16:31N 09°21' W 079°55'0 0.0
2018-Mar-11 16:00N 09°21' W 079°55'0 0.0
2018-Mar-11 15:30N 09°21' W 079°55'0 0.0
2018-Mar-11 15:00N 09°21' W 079°55'0 0.0
2018-Mar-11 14:31N 09°21' W 079°55'0 0.0
2018-Mar-11 14:01N 09°21' W 079°55'0 0.0
2018-Mar-11 13:31N 09°21' W 079°55'0 0.0
2018-Mar-11 13:01N 09°21' W 079°55'0 0.6
2018-Mar-11 12:30N 09°21' W 079°55'2 4.1
2018-Mar-11 12:00N 09°23' W 079°55'3 6.9
2018-Mar-11 11:31N 09°26' W 079°55'3 5.5
2018-Mar-11 11:01N 09°29' W 079°54'1 2.9
2018-Mar-11 10:31N 09°30' W 079°53'0 0.9
2018-Mar-11 10:00N 09°31' W 079°54'1 1.4
2018-Mar-11 09:31N 09°30' W 079°54'5 9.5
2018-Mar-11 09:00N 09°35' W 079°53'  
2018-Mar-06 21:11N 29°21' W 094°43'212.6
2018-Mar-06 21:00N 29°21' W 094°46'1010.5
2018-Mar-06 20:03N 29°29' W 094°52'111.3
2018-Mar-06 19:59N 29°30' W 094°52'510.5
2018-Mar-06 19:30N 29°34' W 094°55'5 9.4
2018-Mar-06 19:00N 29°38' W 094°58'3 6.5
2018-Mar-06 18:30N 29°41' W 094°59'0 0.6
2018-Mar-06 18:00N 29°41' W 094°60'0 0.0
2018-Mar-06 17:30N 29°41' W 094°60'0 0.0
2018-Mar-06 17:00N 29°41' W 094°60'0 0.0
2018-Mar-06 16:30N 29°41' W 094°60'0 0.0
2018-Mar-06 16:00N 29°41' W 094°60'0 0.0
2018-Mar-06 15:30N 29°41' W 094°60'0 0.0
2018-Mar-06 15:00N 29°41' W 094°59'0 0.0
2018-Mar-06 14:30N 29°41' W 094°60'0 0.0
2018-Mar-06 14:00N 29°41' W 094°60'0 0.0
2018-Mar-06 13:30N 29°41' W 094°60'0 0.0
2018-Mar-06 13:00N 29°41' W 094°60'0 0.0
2018-Mar-06 12:30N 29°41' W 094°60'0 0.0
2018-Mar-06 12:00N 29°41' W 094°60'0 0.0
2018-Mar-06 11:30N 29°41' W 094°60'0 0.0
2018-Mar-06 11:00N 29°41' W 094°60'0 0.0
2018-Mar-06 10:30N 29°41' W 094°60'0 0.0
2018-Mar-06 10:00N 29°41' W 094°60'0 0.0
2018-Mar-06 09:30N 29°41' W 094°60'0 0.0
2018-Mar-06 09:00N 29°41' W 094°60'0 0.0
2018-Mar-06 08:30N 29°41' W 094°60'0 0.0
2018-Mar-06 08:00N 29°41' W 094°60'0 0.0
2018-Mar-06 07:30N 29°41' W 094°60'0 0.0
2018-Mar-06 07:00N 29°41' W 094°60'0 0.0
2018-Mar-06 06:30N 29°41' W 094°60'0 0.0
2018-Mar-06 06:00N 29°41' W 094°60'0 0.0
2018-Mar-06 05:30N 29°41' W 094°60'0 0.0
2018-Mar-06 05:00N 29°41' W 094°60'0 0.0
2018-Mar-06 04:30N 29°41' W 094°60'0 0.0
2018-Mar-06 04:00N 29°41' W 094°60'0 0.0
2018-Mar-06 03:30N 29°41' W 094°60'0 0.0
2018-Mar-06 03:00N 29°41' W 094°60'0 0.0
2018-Mar-06 02:30N 29°41' W 094°60'0 0.0
2018-Mar-06 02:00N 29°41' W 094°60'0 0.0
2018-Mar-06 01:30N 29°41' W 094°60'0 0.0
2018-Mar-06 01:00N 29°41' W 094°60'0 0.0
2018-Mar-06 00:30N 29°41' W 094°60'0 0.0
2018-Mar-06 00:00N 29°41' W 094°60'0 0.0
2018-Mar-05 23:30N 29°41' W 094°60'0 0.0
2018-Mar-05 23:00N 29°41' W 094°60'0 0.0
2018-Mar-05 22:30N 29°41' W 094°60'0 0.1
2018-Mar-05 22:00N 29°41' W 094°60'0 0.0
2018-Mar-05 21:30N 29°41' W 094°60'0 0.0
2018-Mar-05 21:00N 29°41' W 094°60'0 0.0
2018-Mar-05 20:30N 29°41' W 094°60'0 0.1
2018-Mar-05 20:00N 29°41' W 094°60'0 0.1
2018-Mar-05 19:30N 29°41' W 094°60'0 0.0
2018-Mar-05 19:00N 29°41' W 094°60'0 0.0
2018-Mar-05 18:30N 29°41' W 094°60'0 0.0
2018-Mar-05 18:01N 29°41' W 094°60'0 0.0
2018-Mar-05 17:30N 29°41' W 094°60'0 0.0
2018-Mar-05 17:01N 29°41' W 094°60'0 0.0
2018-Mar-05 16:31N 29°41' W 094°60'0 0.0
2018-Mar-05 16:00N 29°41' W 094°60'0 0.0
2018-Mar-05 15:30N 29°41' W 094°60'0 0.0
2018-Mar-05 15:01N 29°41' W 094°60'0 0.0
2018-Mar-05 14:30N 29°41' W 094°60'0 0.0
2018-Mar-05 14:01N 29°41' W 094°60'0 0.0
2018-Mar-05 13:31N 29°41' W 094°60'0 0.0
2018-Mar-05 12:59N 29°41' W 094°60'1 1.3
2018-Mar-05 12:30N 29°41' W 094°59'5 9.6
2018-Mar-05 12:01N 29°36' W 094°57'510.7
2018-Mar-05 11:30N 29°32' W 094°54'611.9
2018-Mar-05 11:01N 29°27' W 094°50'612.5
2018-Mar-05 10:30N 29°21' W 094°47'2210.8
2018-Mar-05 08:27N 29°10' W 094°25'611.3
2018-Mar-05 07:54N 29°04' W 094°25'411.1
2018-Mar-05 07:30N 28°60' W 094°25'714.6
2018-Mar-05 07:01N 28°52' W 094°25'918.0
2018-Mar-05 06:31N 28°43' W 094°25'1018.2
2018-Mar-05 05:58N 28°33' W 094°25'  
2018-Mar-02 21:13N 20°15' W 096°24'518.9
2018-Mar-02 20:59N 20°10' W 096°22'2318.6
2018-Mar-02 19:44N 19°49' W 096°12'418.0
2018-Mar-02 19:30N 19°45' W 096°10'1018.5
2018-Mar-02 18:56N 19°36' W 096°05'818.8
2018-Mar-02 18:30N 19°28' W 096°02'1018.6
2018-Mar-02 17:58N 19°19' W 095°57'1014.0
2018-Mar-02 17:16N 19°11' W 096°03'3 9.1
2018-Mar-02 16:58N 19°12' W 096°06'2 4.3
2018-Mar-02 16:28N 19°13' W 096°08'0 0.0
2018-Mar-02 15:40N 19°13' W 096°08'0 0.0
2018-Mar-02 15:28N 19°13' W 096°08'0 0.0
2018-Mar-02 14:52N 19°13' W 096°08'0 0.0
2018-Mar-02 14:25N 19°13' W 096°08'0 0.0
2018-Mar-02 13:40N 19°13' W 096°08'0 0.1
2018-Mar-02 13:19N 19°13' W 096°08'0 0.0
2018-Mar-02 12:22N 19°13' W 096°08'0 0.0
2018-Mar-02 10:10N 19°13' W 096°08'0 0.0
2018-Mar-02 09:43N 19°13' W 096°08'0 0.0
2018-Mar-02 09:20N 19°13' W 096°08'0 0.0
2018-Mar-02 08:56N 19°13' W 096°08'0 0.0
2018-Mar-02 08:24N 19°13' W 096°08'0 0.0
2018-Mar-02 08:00N 19°13' W 096°08'0 0.0
2018-Mar-02 07:30N 19°13' W 096°08'0 0.0
2018-Mar-02 07:00N 19°13' W 096°08'0 0.0
2018-Mar-02 06:29N 19°13' W 096°08'0 0.0
2018-Mar-02 06:00N 19°13' W 096°08'0 0.0
2018-Mar-02 05:28N 19°13' W 096°08'  

Dump ship's entire track history